Time;durP1;ratioP1;P1;durP2;ratioP2;P2;SDS_P1;SDS_P2;PMS_P1;PMS_P2;Temp;Humidity;BMP_temperature;BMP_pressure;BME280_temperature;BME280_humidity;BME280_pressure;Samples;Min_cycle;Max_cycle;Signal;HPM_P1;HPM_P2
2023/04/11 00:00:34;;;;;;;6.72;2.25;;;14.50;94.40;;;;;;5055253;28;20025;-72
2023/04/11 00:03:02;;;;;;;4.87;2.00;;;14.50;94.60;;;;;;5046244;28;20037;-77
2023/04/11 00:05:32;;;;;;;4.82;1.90;;;14.50;94.20;;;;;;5050645;28;20525;-75
2023/04/11 00:07:57;;;;;;;6.18;2.13;;;14.50;94.10;;;;;;5067313;28;20035;-74
2023/04/11 00:10:24;;;;;;;6.40;2.17;;;14.50;94.70;;;;;;5067148;28;20045;-71
2023/04/11 00:12:49;;;;;;;4.65;2.30;;;14.50;94.00;;;;;;5066891;28;20024;-68
2023/04/11 00:15:15;;;;;;;4.57;2.07;;;14.50;94.20;;;;;;5067016;28;20469;-67
2023/04/11 00:17:44;;;;;;;2.50;1.93;;;14.50;94.20;;;;;;5061106;28;20370;-66
2023/04/11 00:20:11;;;;;;;3.85;2.20;;;14.40;93.60;;;;;;5067073;28;20043;-78
2023/04/11 00:22:37;;;;;;;6.78;1.90;;;14.40;93.90;;;;;;5046177;28;20443;-70
2023/04/11 00:25:04;;;;;;;2.75;1.83;;;14.40;93.60;;;;;;5046986;28;20029;-72
2023/04/11 00:27:30;;;;;;;4.53;2.03;;;14.30;93.80;;;;;;5056578;28;20021;-72
2023/04/11 00:29:56;;;;;;;3.30;2.00;;;14.30;93.60;;;;;;5047300;28;20051;-74
2023/04/11 00:32:23;;;;;;;2.58;1.55;;;14.30;93.90;;;;;;5060994;28;20296;-78
2023/04/11 00:34:49;;;;;;;;;;;14.30;92.90;;;;;;5051861;28;20064;-80
2023/04/11 00:37:16;;;;;;;5.25;2.17;;;14.30;92.40;;;;;;5067294;28;20395;-73
2023/04/11 00:39:44;;;;;;;4.68;1.98;;;14.30;92.20;;;;;;5066975;28;20507;-75
2023/04/11 00:42:10;;;;;;;5.13;1.60;;;14.20;92.30;;;;;;5065885;28;20025;-76
2023/04/11 00:44:36;;;;;;;6.25;2.22;;;14.30;91.30;;;;;;5066033;28;20032;-77
2023/04/11 00:47:05;;;;;;;7.28;1.85;;;14.30;90.80;;;;;;5065962;28;20051;-78
2023/04/11 00:49:31;;;;;;;5.13;1.80;;;14.30;90.80;;;;;;5065965;28;20036;-71
2023/04/11 00:51:58;;;;;;;4.20;2.00;;;14.20;90.40;;;;;;5098720;28;20507;-79
2023/04/11 00:54:28;;;;;;;5.03;1.75;;;14.20;90.50;;;;;;5065993;28;20119;-72
2023/04/11 00:57:00;;;;;;;3.70;1.65;;;14.20;90.10;;;;;;5066550;28;20021;-71
2023/04/11 00:59:27;;;;;;;3.13;1.67;;;14.20;90.10;;;;;;5065176;28;20126;-67
2023/04/11 01:01:53;;;;;;;3.35;1.48;;;14.20;89.80;;;;;;5059865;28;20017;-69
2023/04/11 01:04:20;;;;;;;2.73;1.30;;;14.20;90.20;;;;;;5053724;28;20033;-71
2023/04/11 01:06:50;;;;;;;5.30;1.58;;;14.10;90.80;;;;;;5070279;28;20032;-72
2023/04/11 01:09:16;;;;;;;4.07;1.50;;;13.90;91.00;;;;;;5068929;28;20519;-71
2023/04/11 01:11:42;;;;;;;3.10;1.67;;;13.90;91.20;;;;;;5070139;28;20058;-69
2023/04/11 01:14:07;;;;;;;6.03;1.80;;;13.90;90.80;;;;;;5060596;28;20084;-75
2023/04/11 01:16:33;;;;;;;2.37;1.50;;;14.00;91.10;;;;;;5075166;28;20416;-76
2023/04/11 01:18:59;;;;;;;5.37;1.80;;;13.90;90.50;;;;;;5069586;28;20036;-79
2023/04/11 01:21:25;;;;;;;5.13;1.83;;;14.00;90.00;;;;;;5069729;28;20031;-72
2023/04/11 01:23:55;;;;;;;;;;;14.00;88.90;;;;;;5069978;28;20290;-70
2023/04/11 01:26:20;;;;;;;4.70;2.13;;;14.00;89.60;;;;;;5069342;28;19993;-78
2023/04/11 01:28:46;;;;;;;3.23;1.83;;;14.00;88.50;;;;;;5069313;28;20315;-70
2023/04/11 01:31:12;;;;;;;3.63;1.80;;;14.00;88.80;;;;;;5059377;28;20093;-68
2023/04/11 01:33:37;;;;;;;7.57;1.80;;;14.00;88.70;;;;;;5063929;28;20047;-81
2023/04/11 01:36:03;;;;;;;3.40;1.60;;;13.90;88.90;;;;;;5066365;28;20024;-81
2023/04/11 01:38:29;;;;;;;4.03;1.75;;;13.90;90.00;;;;;;5068349;28;20579;-78
2023/04/11 01:40:57;;;;;;;4.17;1.50;;;13.90;88.60;;;;;;5066799;28;20064;-70
2023/04/11 01:43:22;;;;;;;3.75;1.67;;;13.90;89.20;;;;;;5068014;28;20279;-72
2023/04/11 01:45:48;;;;;;;2.47;1.60;;;13.80;89.30;;;;;;5067710;28;20131;-73
2023/04/11 01:48:14;;;;;;;2.05;1.67;;;13.80;88.90;;;;;;5066234;28;20040;-71
2023/04/11 01:50:40;;;;;;;4.00;1.83;;;13.80;90.30;;;;;;5067445;28;20047;-77
2023/04/11 01:53:07;;;;;;;3.07;1.70;;;13.80;89.30;;;;;;5067720;28;20411;-78
2023/04/11 01:55:32;;;;;;;3.95;1.55;;;13.80;89.70;;;;;;5065352;28;20491;-72
2023/04/11 01:57:58;;;;;;;5.30;1.67;;;13.80;90.40;;;;;;5066111;28;20445;-74
2023/04/11 02:00:23;;;;;;;4.13;1.97;;;13.80;91.40;;;;;;5067854;28;20024;-74
2023/04/11 02:02:49;;;;;;;3.23;1.60;;;13.80;91.50;;;;;;5067061;28;20064;-76
2023/04/11 02:05:15;;;;;;;3.97;1.90;;;13.50;92.10;;;;;;5067313;28;20029;-77
2023/04/11 02:07:41;;;;;;;3.50;1.97;;;13.40;93.00;;;;;;5067725;28;20484;-75
2023/04/11 02:10:07;;;;;;;10.93;1.75;;;13.30;93.00;;;;;;5066194;28;20040;-70
2023/04/11 02:12:33;;;;;;;6.07;2.38;;;13.40;92.90;;;;;;5065953;28;20842;-75
2023/04/11 02:14:58;;;;;;;5.70;2.00;;;13.40;92.60;;;;;;5068383;28;20119;-81
2023/04/11 02:17:25;;;;;;;4.00;2.03;;;13.40;92.40;;;;;;5066401;28;20059;-77
2023/04/11 02:19:50;;;;;;;;;;;13.40;92.50;;;;;;5066845;28;20115;-80
2023/04/11 02:22:16;;;;;;;7.45;2.53;;;13.40;92.30;;;;;;5067366;28;20003;-74
2023/04/11 02:24:42;;;;;;;2.85;2.03;;;13.50;92.80;;;;;;5067750;28;20917;-69
2023/04/11 02:27:09;;;;;;;3.63;1.60;;;13.40;93.30;;;;;;5066830;28;20040;-68
2023/04/11 02:29:35;;;;;;;6.82;1.95;;;13.40;92.20;;;;;;5062143;28;20048;-77
2023/04/11 02:32:01;;;;;;;4.82;3.10;;;13.40;92.20;;;;;;5067309;28;20024;-74
2023/04/11 02:34:26;;;;;;;8.87;2.13;;;13.40;92.60;;;;;;5066162;28;20037;-75
2023/04/11 02:36:52;;;;;;;3.87;1.87;;;13.30;93.00;;;;;;5066874;28;20044;-69
2023/04/11 02:39:22;;;;;;;2.72;1.70;;;13.40;93.00;;;;;;5069477;28;20570;-73
2023/04/11 02:41:48;;;;;;;5.25;1.90;;;13.40;92.90;;;;;;5067299;28;20085;-70
2023/04/11 02:44:14;;;;;;;5.67;1.80;;;13.30;93.30;;;;;;5066576;28;20040;-71
2023/04/11 02:46:39;;;;;;;4.50;1.97;;;13.40;95.20;;;;;;5067217;28;20283;-83
2023/04/11 02:49:05;;;;;;;7.63;2.30;;;13.40;92.80;;;;;;5068857;28;20032;-79
2023/04/11 02:51:31;;;;;;;7.97;2.43;;;13.40;93.70;;;;;;5065908;28;20781;-73
2023/04/11 02:53:57;;;;;;;4.15;2.33;;;13.30;93.40;;;;;;5066363;28;20036;-68
2023/04/11 02:56:23;;;;;;;3.70;1.90;;;13.20;94.60;;;;;;5065819;28;20037;-68
2023/04/11 02:58:51;;;;;;;4.00;2.42;;;13.10;96.10;;;;;;5065491;28;20028;-79
2023/04/11 03:01:20;;;;;;;4.15;2.28;;;13.10;95.10;;;;;;5065801;28;20443;-74
2023/04/11 03:03:46;;;;;;;5.60;2.05;;;13.10;96.00;;;;;;5063675;28;20032;-67
2023/04/11 03:06:12;;;;;;;8.35;3.05;;;13.10;95.30;;;;;;5064401;28;20033;-74
2023/04/11 03:08:38;;;;;;;4.57;2.43;;;13.20;95.70;;;;;;5065402;28;20043;-72
2023/04/11 03:11:03;;;;;;;3.95;2.28;;;13.20;97.00;;;;;;5065873;28;20032;-73
2023/04/11 03:13:29;;;;;;;4.53;2.00;;;13.10;96.00;;;;;;5065418;28;20032;-78
2023/04/11 03:15:55;;;;;;;4.35;2.03;;;13.10;96.70;;;;;;5065177;28;20028;-73
2023/04/11 03:18:21;;;;;;;6.17;2.60;;;13.00;96.00;;;;;;5064511;28;20535;-68
2023/04/11 03:20:47;;;;;;;3.15;2.15;;;13.10;95.80;;;;;;5066429;28;20119;-76
2023/04/11 03:23:13;;;;;;;7.65;2.47;;;13.10;96.70;;;;;;5063540;28;20563;-74
2023/04/11 03:25:39;;;;;;;6.95;2.22;;;13.20;95.10;;;;;;5063076;28;20111;-75
2023/04/11 03:28:05;;;;;;;4.20;2.00;;;13.10;96.00;;;;;;5065311;28;20439;-71
2023/04/11 03:30:31;;;;;;;3.25;1.92;;;13.10;95.70;;;;;;5063197;28;20051;-69
2023/04/11 03:32:59;;;;;;;9.57;2.75;;;13.10;96.10;;;;;;5056504;28;20033;-66
2023/04/11 03:35:26;;;;;;;7.35;2.10;;;13.10;95.50;;;;;;5065408;28;20411;-67
2023/04/11 03:37:51;;;;;;;6.22;2.47;;;13.10;95.30;;;;;;5064953;28;20032;-70
2023/04/11 03:40:17;;;;;;;3.97;1.90;;;13.20;95.30;;;;;;5061615;28;20051;-69
2023/04/11 03:42:45;;;;;;;5.40;2.43;;;13.20;95.30;;;;;;5058467;28;20593;-69
2023/04/11 03:45:10;;;;;;;8.95;1.92;;;13.20;95.70;;;;;;5065513;28;20224;-71
2023/04/11 03:47:37;;;;;;;2.47;2.03;;;13.20;95.50;;;;;;5062139;28;20547;-69
2023/04/11 03:50:03;;;;;;;3.05;2.10;;;13.20;95.00;;;;;;5053462;28;20029;-68
2023/04/11 03:52:29;;;;;;;7.03;2.80;;;13.30;95.40;;;;;;5060161;28;20089;-78
2023/04/11 03:54:54;;;;;;;4.40;2.23;;;13.30;94.80;;;;;;5066614;28;20032;-73
2023/04/11 03:57:20;;;;;;;5.37;2.20;;;13.20;95.50;;;;;;5062448;28;20735;-82
2023/04/11 03:59:49;;;;;;;5.03;2.23;;;13.20;95.70;;;;;;5063442;28;20052;-73
2023/04/11 04:02:15;;;;;;;4.88;2.38;;;13.20;95.30;;;;;;5060811;28;20162;-76
2023/04/11 04:04:42;;;;;;;4.50;2.07;;;13.30;95.20;;;;;;5066036;28;20115;-77
2023/04/11 04:07:08;;;;;;;4.97;2.22;;;13.40;95.10;;;;;;5060162;28;20356;-77
2023/04/11 04:09:34;;;;;;;5.57;2.42;;;13.30;95.30;;;;;;5064152;28;20094;-77
2023/04/11 04:12:00;;;;;;;5.03;2.50;;;13.30;94.70;;;;;;5063634;28;20437;-74
2023/04/11 04:14:26;;;;;;;5.03;2.33;;;13.30;94.90;;;;;;5064367;28;20037;-79
2023/04/11 04:16:51;;;;;;;4.60;2.33;;;13.20;95.80;;;;;;5062877;28;20035;-73
2023/04/11 04:19:17;;;;;;;5.20;2.10;;;13.20;96.10;;;;;;5060672;28;20420;-76
2023/04/11 04:21:44;;;;;;;9.97;2.30;;;13.20;95.10;;;;;;5062809;28;20025;-74
2023/04/11 04:24:11;;;;;;;5.10;2.60;;;13.30;95.40;;;;;;5059348;28;20112;-71
2023/04/11 04:26:38;;;;;;;3.45;2.05;;;13.30;95.50;;;;;;5065435;28;20029;-69
2023/04/11 04:29:04;;;;;;;6.22;2.83;;;13.40;94.80;;;;;;5064432;28;20025;-73
2023/04/11 04:31:33;;;;;;;5.10;1.88;;;13.40;94.90;;;;;;5064793;28;20162;-73
2023/04/11 04:34:07;;;;;;;3.70;2.10;;;13.40;96.70;;;;;;5065023;28;20036;-69
2023/04/11 04:36:45;;;;;;;6.35;2.20;;;13.30;96.70;;;;;;5066988;28;20035;-69
2023/04/11 04:39:17;;;;;;;7.85;2.67;;;13.40;96.10;;;;;;5068999;28;20032;-68
2023/04/11 04:41:47;;;;;;;5.70;2.97;;;13.00;99.10;;;;;;5069872;28;20040;-77
2023/04/11 04:44:14;;;;;;;3.47;2.28;;;12.90;99.90;;;;;;5068279;28;20383;-73
2023/04/11 04:46:41;;;;;;;6.57;2.85;;;12.80;99.90;;;;;;5068681;28;20033;-73
2023/04/11 04:49:07;;;;;;;8.43;2.88;;;12.90;99.60;;;;;;5068598;28;20048;-76
2023/04/11 04:51:34;;;;;;;;;;;12.80;99.60;;;;;;5070005;28;20797;-77
2023/04/11 04:53:59;;;;;;;5.50;2.72;;;12.90;99.30;;;;;;5069948;28;20356;-69
2023/04/11 04:56:29;;;;;;;12.00;2.77;;;12.90;99.10;;;;;;5069177;28;20056;-71
2023/04/11 04:58:55;;;;;;;6.45;2.60;;;12.80;99.00;;;;;;5069856;28;20029;-75
2023/04/11 05:01:25;;;;;;;7.00;3.00;;;12.90;99.20;;;;;;5067405;28;20021;-71
2023/04/11 05:03:59;;;;;;;7.75;2.85;;;12.80;99.80;;;;;;5069828;28;20063;-70
2023/04/11 05:06:30;;;;;;;8.65;2.67;;;12.80;99.90;;;;;;5068341;28;20036;-76
2023/04/11 05:08:57;;;;;;;6.65;2.60;;;12.60;99.90;;;;;;5067794;28;20039;-73
2023/04/11 05:11:24;;;;;;;5.53;2.35;;;12.50;99.90;;;;;;5067640;28;20028;-78
2023/04/11 05:13:50;;;;;;;7.53;2.40;;;12.50;99.90;;;;;;5067617;28;20029;-74
2023/04/11 05:16:16;;;;;;;3.00;2.03;;;12.60;99.90;;;;;;5068540;28;20032;-75
2023/04/11 05:18:42;;;;;;;3.63;1.95;;;12.50;99.90;;;;;;5067831;28;20024;-71
2023/04/11 05:21:07;;;;;;;2.50;1.73;;;12.40;99.90;;;;;;5068107;28;20454;-78
2023/04/11 05:23:33;;;;;;;3.90;1.57;;;12.40;99.90;;;;;;5068670;28;20032;-77
2023/04/11 05:26:00;;;;;;;5.33;1.60;;;12.30;99.90;;;;;;5069549;28;20028;-79
2023/04/11 05:28:25;;;;;;;4.43;0.85;;;12.20;99.90;;;;;;5068393;28;20033;-76
2023/04/11 05:30:51;;;;;;;6.13;1.47;;;12.10;99.90;;;;;;5069138;28;20503;-75
2023/04/11 05:33:17;;;;;;;7.00;1.50;;;12.10;99.90;;;;;;5067569;28;20028;-73
2023/04/11 05:35:42;;;;;;;3.67;1.20;;;12.10;99.90;;;;;;5068876;28;20543;-72
2023/04/11 05:38:08;;;;;;;5.37;1.30;;;11.90;99.90;;;;;;5068253;28;20029;-72
2023/04/11 05:40:35;;;;;;;3.65;1.42;;;11.80;99.90;;;;;;5068267;28;20054;-70
2023/04/11 05:43:01;;;;;;;2.88;1.20;;;11.70;99.90;;;;;;5069159;28;20056;-71
2023/04/11 05:45:27;;;;;;;9.18;1.88;;;11.70;99.90;;;;;;5068460;28;20063;-71
2023/04/11 05:47:52;;;;;;;10.33;1.80;;;11.70;99.90;;;;;;5068669;28;20037;-73
2023/04/11 05:50:18;;;;;;;5.67;1.23;;;11.60;99.90;;;;;;5066979;28;20043;-72
2023/04/11 05:52:44;;;;;;;6.23;2.10;;;11.80;99.90;;;;;;5067574;28;20037;-72
2023/04/11 05:55:10;;;;;;;3.90;1.70;;;11.70;99.90;;;;;;5065041;28;20067;-72
2023/04/11 05:57:35;;;;;;;7.25;1.52;;;11.70;99.90;;;;;;5064782;28;20056;-71
2023/04/11 06:00:05;;;;;;;3.17;1.40;;;11.70;99.90;;;;;;5066131;28;20063;-73
2023/04/11 06:02:32;;;;;;;6.05;1.42;;;11.60;99.90;;;;;;5064104;28;20021;-71
2023/04/11 06:04:57;;;;;;;6.40;1.73;;;11.60;99.90;;;;;;5064295;28;20060;-72
2023/04/11 06:07:23;;;;;;;5.37;1.27;;;11.50;99.90;;;;;;5064417;28;20056;-73
2023/04/11 06:09:49;;;;;;;3.97;1.30;;;11.60;99.90;;;;;;5067141;28;20036;-73
2023/04/11 06:12:15;;;;;;;5.85;1.35;;;11.60;99.90;;;;;;5062421;28;20959;-74
2023/04/11 06:14:40;;;;;;;3.50;1.23;;;11.60;99.90;;;;;;5067032;28;20048;-75
2023/04/11 06:17:06;;;;;;;4.03;1.50;;;11.50;99.90;;;;;;5067615;28;20032;-74
2023/04/11 06:19:31;;;;;;;6.70;1.73;;;11.70;99.90;;;;;;5066342;28;20032;-73
2023/04/11 06:21:57;;;;;;;6.83;1.37;;;11.70;99.90;;;;;;5064923;28;20048;-72
2023/04/11 06:24:36;;;;;;;6.30;2.40;;;11.70;99.90;;;;;;5061873;28;20052;-73
2023/04/11 06:27:02;;;;;;;4.07;1.30;;;11.70;99.90;;;;;;5063890;28;20065;-73
2023/04/11 06:29:28;;;;;;;3.92;1.45;;;11.80;99.90;;;;;;5066847;28;20070;-73
2023/04/11 06:31:54;;;;;;;4.88;1.35;;;11.70;99.90;;;;;;5064028;28;20054;-73
2023/04/11 06:34:20;;;;;;;5.75;1.42;;;11.80;99.90;;;;;;5055221;28;20033;-71
2023/04/11 06:36:48;;;;;;;4.37;1.63;;;11.80;99.90;;;;;;5067269;28;20107;-75
2023/04/11 06:39:15;;;;;;;6.15;1.48;;;11.80;99.90;;;;;;5063392;28;20016;-73
2023/04/11 06:41:41;;;;;;;7.72;1.63;;;11.80;99.90;;;;;;5057425;28;20116;-77
2023/04/11 06:44:07;;;;;;;6.78;1.65;;;11.50;99.90;;;;;;5058191;28;20025;-76
2023/04/11 06:46:33;;;;;;;4.60;1.57;;;11.70;99.90;;;;;;5061702;28;20190;-76
2023/04/11 06:48:58;;;;;;;9.00;1.53;;;11.80;99.90;;;;;;5066059;28;20290;-75
2023/04/11 06:51:24;;;;;;;5.03;1.90;;;11.80;99.90;;;;;;5061371;28;20081;-75
2023/04/11 06:53:50;;;;;;;3.80;1.27;;;11.90;99.90;;;;;;5063302;28;20046;-75
2023/04/11 06:56:16;;;;;;;3.13;1.40;;;11.70;99.90;;;;;;5061333;28;20037;-76
2023/04/11 06:58:41;;;;;;;6.30;1.47;;;11.80;99.90;;;;;;5065794;28;20055;-78
2023/04/11 07:01:07;;;;;;;3.77;1.60;;;11.90;99.90;;;;;;5064824;28;20104;-75
2023/04/11 07:03:32;;;;;;;3.87;1.23;;;11.70;99.90;;;;;;5069588;28;20796;-78
2023/04/11 07:05:58;;;;;;;5.83;1.70;;;11.70;99.90;;;;;;5072941;28;20111;-82
2023/04/11 07:08:24;;;;;;;5.70;1.47;;;11.90;99.90;;;;;;5071251;28;20024;-75
2023/04/11 07:10:49;;;;;;;3.00;1.57;;;11.80;99.90;;;;;;5074747;28;20040;-74
2023/04/11 07:13:15;;;;;;;6.80;1.73;;;11.90;99.90;;;;;;5072720;28;20496;-74
2023/04/11 07:15:41;;;;;;;10.00;2.00;;;11.70;99.90;;;;;;5070413;28;20643;-75
2023/04/11 07:18:06;;;;;;;3.10;1.10;;;11.80;99.90;;;;;;5077311;28;20040;-80
2023/04/11 07:20:33;;;;;;;6.17;1.50;;;11.80;99.90;;;;;;5074674;28;20056;-81
2023/04/11 07:22:58;;;;;;;;;;;11.60;99.90;;;;;;5072781;28;20504;-78
2023/04/11 07:25:32;;;;;;;6.75;1.70;;;11.80;99.90;;;;;;5069782;28;19920;-76
2023/04/11 07:27:59;;;;;;;5.15;1.33;;;11.70;99.90;;;;;;5067643;28;20032;-81
2023/04/11 07:30:26;;;;;;;5.80;1.33;;;11.80;99.90;;;;;;5071774;28;20048;-77
2023/04/11 07:32:51;;;;;;;7.28;1.38;;;11.80;99.90;;;;;;5068369;28;20531;-77
2023/04/11 07:35:17;;;;;;;4.50;1.48;;;11.70;99.90;;;;;;5065781;28;20047;-79
2023/04/11 07:37:44;;;;;;;8.33;2.97;;;11.50;99.90;;;;;;5065246;28;20027;-75
2023/04/11 07:40:12;;;;;;;8.32;1.55;;;11.60;99.90;;;;;;5066228;28;20029;-79
2023/04/11 07:42:38;;;;;;;7.15;1.02;;;11.50;99.90;;;;;;5059916;28;20020;-76
2023/04/11 07:45:05;;;;;;;10.65;1.50;;;11.50;99.90;;;;;;5064123;28;20455;-78
2023/04/11 07:47:31;;;;;;;7.65;3.00;;;11.50;99.90;;;;;;5056830;28;20487;-74
2023/04/11 07:49:57;;;;;;;12.23;1.67;;;11.50;99.90;;;;;;5057898;28;20043;-74
2023/04/11 07:52:23;;;;;;;6.20;1.33;;;11.60;99.90;;;;;;5062371;28;20031;-77
2023/04/11 07:54:49;;;;;;;6.55;2.08;;;11.60;99.90;;;;;;5065644;28;20038;-74
2023/04/11 07:57:15;;;;;;;7.27;1.83;;;11.50;99.90;;;;;;5062367;28;20388;-75
2023/04/11 07:59:41;;;;;;;9.02;1.88;;;11.40;99.90;;;;;;5057345;28;20032;-74
2023/04/11 08:02:07;;;;;;;7.70;1.80;;;11.40;99.90;;;;;;5063756;28;20051;-78
2023/04/11 08:04:33;;;;;;;10.57;1.35;;;11.50;99.90;;;;;;5064478;28;20036;-77
2023/04/11 08:06:59;;;;;;;7.18;1.80;;;11.50;99.90;;;;;;5063857;28;20488;-77
2023/04/11 08:09:26;;;;;;;10.40;1.53;;;11.30;99.90;;;;;;5063494;28;20087;-77
2023/04/11 08:11:52;;;;;;;6.70;2.28;;;11.40;99.90;;;;;;5067838;28;20040;-76
2023/04/11 08:14:18;;;;;;;11.82;1.80;;;11.40;99.90;;;;;;5068816;28;20035;-77
2023/04/11 08:16:43;;;;;;;10.20;2.10;;;11.60;99.90;;;;;;5067220;28;20059;-77
2023/04/11 08:19:10;;;;;;;5.93;1.33;;;11.70;99.90;;;;;;5068678;28;20032;-78
2023/04/11 08:21:36;;;;;;;;;;;11.70;99.90;;;;;;5069940;28;20033;-76
2023/04/11 08:24:02;;;;;;;5.15;1.13;;;11.50;99.90;;;;;;5069953;28;20033;-78
2023/04/11 08:26:27;;;;;;;11.60;2.17;;;11.50;99.90;;;;;;5068334;28;20082;-78
2023/04/11 08:28:53;;;;;;;14.27;2.30;;;11.50;99.90;;;;;;5069665;28;20033;-79
2023/04/11 08:31:18;;;;;;;5.07;1.27;;;11.60;99.90;;;;;;5074796;28;20041;-78
2023/04/11 08:33:44;;;;;;;14.83;3.30;;;11.80;99.90;;;;;;5070177;28;20468;-76
2023/04/11 08:36:10;;;;;;;9.17;1.80;;;12.00;99.90;;;;;;5070314;28;20025;-79
2023/04/11 08:38:36;;;;;;;6.68;1.58;;;11.90;99.90;;;;;;5069919;28;20020;-82
2023/04/11 08:41:02;;;;;;;6.93;1.35;;;12.10;99.90;;;;;;5069831;28;20043;-76
2023/04/11 08:43:27;;;;;;;8.83;1.57;;;12.20;99.90;;;;;;5068677;28;20119;-75
2023/04/11 08:45:53;;;;;;;7.87;1.97;;;12.00;99.90;;;;;;5068263;28;20034;-81
2023/04/11 08:48:23;;;;;;;6.23;1.83;;;12.10;99.90;;;;;;5065124;28;20039;-78
2023/04/11 08:50:49;;;;;;;10.45;2.00;;;12.00;99.90;;;;;;5066352;28;20055;-76
2023/04/11 08:53:17;;;;;;;7.10;1.43;;;12.30;99.90;;;;;;5067093;28;20029;-76
2023/04/11 08:55:45;;;;;;;8.82;1.98;;;12.10;99.90;;;;;;5064774;28;20028;-73
2023/04/11 08:58:10;;;;;;;10.75;1.63;;;12.30;99.90;;;;;;5064563;28;20020;-74
2023/04/11 09:00:36;;;;;;;12.57;2.50;;;12.20;99.90;;;;;;5062231;28;20036;-78
2023/04/11 09:03:06;;;;;;;6.30;2.27;;;12.30;99.90;;;;;;5063058;28;20492;-74
2023/04/11 09:05:37;;;;;;;7.35;1.70;;;12.60;99.90;;;;;;5064948;28;20044;-73
2023/04/11 09:08:08;;;;;;;9.85;2.22;;;12.70;99.90;;;;;;5067498;28;20135;-79
2023/04/11 09:10:34;;;;;;;11.43;1.60;;;12.40;99.90;;;;;;5063664;28;20041;-73
2023/04/11 09:13:01;;;;;;;8.82;1.70;;;12.30;99.90;;;;;;5061576;28;20029;-71
2023/04/11 09:15:29;;;;;;;7.78;2.05;;;12.40;99.90;;;;;;5059498;28;20181;-71
2023/04/11 09:17:56;;;;;;;7.20;2.28;;;12.30;99.90;;;;;;5062132;28;20029;-74
2023/04/11 09:20:28;;;;;;;9.95;2.20;;;12.60;99.90;;;;;;5063391;28;20017;-70
2023/04/11 09:22:55;;;;;;;6.80;2.05;;;12.70;99.90;;;;;;5066707;28;20047;-75
2023/04/11 09:25:22;;;;;;;13.57;2.05;;;12.80;99.90;;;;;;5067630;28;20028;-72
2023/04/11 09:27:49;;;;;;;7.80;2.15;;;12.70;99.90;;;;;;5066251;28;20072;-72
2023/04/11 09:30:23;;;;;;;6.15;1.98;;;12.80;99.90;;;;;;5070828;28;20032;-70
2023/04/11 09:32:51;;;;;;;9.45;1.80;;;12.70;99.90;;;;;;5077464;28;20020;-74
2023/04/11 09:35:23;;;;;;;5.95;2.38;;;12.70;99.90;;;;;;5073257;28;20098;-72
2023/04/11 09:37:54;;;;;;;7.32;2.10;;;12.90;99.90;;;;;;5070658;28;20016;-70
2023/04/11 09:40:32;;;;;;;11.57;2.30;;;12.90;99.90;;;;;;5066878;28;20036;-75
2023/04/11 09:43:02;;;;;;;7.90;2.53;;;13.30;99.90;;;;;;5064438;28;20036;-74
2023/04/11 09:45:29;;;;;;;10.50;2.20;;;13.30;99.90;;;;;;5066882;28;20056;-73
2023/04/11 09:47:57;;;;;;;6.35;1.95;;;13.40;99.90;;;;;;5065968;28;20412;-73
2023/04/11 09:50:25;;;;;;;6.63;2.20;;;13.60;99.90;;;;;;5065900;28;20438;-72
2023/04/11 09:52:57;;;;;;;4.68;1.67;;;14.00;99.90;;;;;;5065571;28;20028;-74
2023/04/11 09:55:23;;;;;;;7.18;2.00;;;13.90;99.90;;;;;;5072565;28;20036;-74
2023/04/11 09:57:53;;;;;;;15.45;2.17;;;14.30;99.90;;;;;;5074893;28;20438;-74
2023/04/11 10:00:21;;;;;;;8.00;2.22;;;14.60;99.90;;;;;;5074759;28;20447;-74
2023/04/11 10:02:49;;;;;;;6.82;1.95;;;15.20;99.90;;;;;;5074811;28;20256;-73
2023/04/11 10:05:17;;;;;;;7.97;1.90;;;15.30;99.90;;;;;;5074609;28;20028;-72
2023/04/11 10:07:51;;;;;;;11.25;1.67;;;14.80;99.90;;;;;;5091898;28;20031;-75
2023/04/11 10:10:19;;;;;;;9.40;2.03;;;15.20;99.90;;;;;;5075599;28;20078;-74
2023/04/11 10:12:44;;;;;;;15.65;3.00;;;15.60;99.90;;;;;;5075795;28;20438;-76
2023/04/11 10:15:11;;;;;;;10.43;2.30;;;16.50;99.50;;;;;;5075726;28;20036;-73
2023/04/11 10:17:36;;;;;;;7.97;1.75;;;16.30;98.60;;;;;;5072700;28;20067;-71
2023/04/11 10:20:34;;;;;;;9.90;2.10;;;15.60;99.90;;;;;;5071057;28;20040;-71
2023/04/11 10:23:00;;;;;;;9.63;1.83;;;15.70;98.00;;;;;;5074381;28;20036;-72
2023/04/11 10:25:27;;;;;;;10.05;2.08;;;16.20;99.90;;;;;;5076135;28;20036;-72
2023/04/11 10:28:00;;;;;;;8.20;1.92;;;16.20;97.60;;;;;;5075756;28;20033;-72
2023/04/11 10:30:43;;;;;;;8.85;2.22;;;15.90;97.60;;;;;;5080959;28;20044;-73
2023/04/11 10:33:14;;;;;;;12.15;2.20;;;16.60;97.80;;;;;;5073469;28;20459;-72
2023/04/11 10:36:02;;;;;;;5.68;1.60;;;17.10;97.90;;;;;;5074047;28;20072;-72
2023/04/11 10:38:40;;;;;;;9.75;2.15;;;16.50;96.70;;;;;;5073684;28;20071;-72
2023/04/11 10:41:24;;;;;;;8.98;1.85;;;16.30;96.50;;;;;;5075965;28;20036;-72
2023/04/11 10:43:51;;;;;;;7.80;2.17;;;16.20;99.30;;;;;;5074660;28;20035;-72
2023/04/11 10:46:22;;;;;;;9.30;2.08;;;16.50;97.00;;;;;;5074792;28;20033;-72
2023/04/11 10:48:58;;;;;;;8.15;2.00;;;16.40;98.70;;;;;;5073720;28;20819;-71
2023/04/11 10:51:25;;;;;;;9.85;2.00;;;15.40;96.20;;;;;;5070998;28;20632;-73
2023/04/11 10:53:51;;;;;;;8.98;2.03;;;15.40;97.50;;;;;;5072956;28;20709;-71
2023/04/11 10:56:39;;;;;;;8.93;1.98;;;15.20;98.30;;;;;;5071541;28;20036;-72
2023/04/11 10:59:04;;;;;;;6.00;1.90;;;15.90;96.40;;;;;;5070036;28;20134;-73
2023/04/11 11:01:30;;;;;;;5.77;1.90;;;15.60;97.20;;;;;;5073460;28;20111;-72
2023/04/11 11:03:56;;;;;;;8.50;1.90;;;16.20;97.50;;;;;;5073415;28;20055;-73
2023/04/11 11:06:22;;;;;;;10.90;2.47;;;16.50;95.80;;;;;;5072190;28;20436;-70
2023/04/11 11:08:48;;;;;;;;;;;16.70;97.20;;;;;;5070105;28;20832;-71
2023/04/11 11:11:15;;;;;;;12.68;2.25;;;17.00;95.30;;;;;;5071375;28;19952;-72
2023/04/11 11:13:43;;;;;;;7.90;1.80;;;16.40;95.10;;;;;;5070494;28;20062;-71
2023/04/11 11:16:15;;;;;;;10.15;2.30;;;15.60;95.50;;;;;;5070453;28;20495;-71
2023/04/11 11:18:45;;;;;;;8.18;1.92;;;15.70;95.90;;;;;;5074384;28;20035;-72
2023/04/11 11:21:14;;;;;;;10.90;1.75;;;16.30;96.80;;;;;;5072892;28;20053;-71
2023/04/11 11:23:51;;;;;;;10.05;1.95;;;16.80;96.00;;;;;;5074658;28;20407;-71
2023/04/11 11:26:17;;;;;;;6.97;1.70;;;16.80;93.60;;;;;;5071403;28;20039;-71
2023/04/11 11:28:47;;;;;;;12.93;2.00;;;17.00;92.90;;;;;;5072230;28;20051;-73
2023/04/11 11:31:13;;;;;;;12.35;2.17;;;17.20;92.30;;;;;;5074485;28;20109;-73
2023/04/11 11:33:43;;;;;;;11.25;2.13;;;17.70;94.80;;;;;;5075172;28;20471;-72
2023/04/11 11:36:10;;;;;;;6.93;1.85;;;18.10;93.50;;;;;;5075849;28;20036;-73
2023/04/11 11:38:35;;;;;;;7.95;2.05;;;18.70;92.60;;;;;;5074932;28;20082;-72
2023/04/11 11:41:01;;;;;;;7.30;2.10;;;18.80;90.40;;;;;;5074340;28;20066;-71
2023/04/11 11:43:27;;;;;;;11.15;2.22;;;19.10;90.30;;;;;;5071014;28;20028;-74
2023/04/11 11:46:13;;;;;;;10.63;1.97;;;18.90;89.00;;;;;;5074140;28;20028;-72
2023/04/11 11:48:41;;;;;;;9.55;1.90;;;18.50;90.60;;;;;;5071530;28;20377;-72
2023/04/11 11:51:06;;;;;;;9.88;1.90;;;18.20;91.00;;;;;;5074335;28;20036;-72
2023/04/11 11:53:32;;;;;;;9.60;2.03;;;17.80;91.40;;;;;;5069755;28;20377;-71
2023/04/11 11:55:58;;;;;;;11.63;2.80;;;17.30;91.90;;;;;;5070688;28;20032;-72
2023/04/11 11:58:24;;;;;;;8.95;2.33;;;17.10;91.60;;;;;;5071099;28;20047;-71
2023/04/11 12:00:51;;;;;;;8.25;1.90;;;17.10;92.00;;;;;;5070943;28;20480;-72
2023/04/11 12:03:22;;;;;;;13.70;1.98;;;16.80;93.40;;;;;;5071625;28;20085;-71
2023/04/11 12:05:50;;;;;;;5.70;1.92;;;18.00;91.70;;;;;;5071739;28;20476;-70
2023/04/11 12:08:19;;;;;;;14.25;4.00;;;18.50;90.10;;;;;;5073845;28;20075;-70
2023/04/11 12:10:46;;;;;;;8.27;2.13;;;18.30;91.90;;;;;;5072243;28;20076;-72
2023/04/11 12:13:19;;;;;;;9.45;1.90;;;18.10;89.50;;;;;;5073444;28;20033;-70
2023/04/11 12:15:53;;;;;;;8.05;2.35;;;18.00;90.40;;;;;;5072448;28;20068;-69
2023/04/11 12:18:23;;;;;;;8.07;2.22;;;17.60;90.20;;;;;;5072996;28;20467;-70
2023/04/11 12:20:49;;;;;;;6.65;2.08;;;17.60;91.10;;;;;;5072707;28;20034;-70
2023/04/11 12:23:15;;;;;;;;;;;17.70;89.90;;;;;;5072914;28;20031;-70
2023/04/11 12:25:41;;;;;;;9.02;2.30;;;18.10;90.10;;;;;;5071284;28;19995;-71
2023/04/11 12:28:08;;;;;;;10.23;2.23;;;18.10;90.70;;;;;;5069068;28;20036;-70
2023/04/11 12:30:33;;;;;;;9.13;1.73;;;18.40;90.40;;;;;;5069389;28;20032;-71
2023/04/11 12:32:59;;;;;;;12.47;2.50;;;18.60;89.50;;;;;;5070479;28;20030;-70
2023/04/11 12:35:25;;;;;;;10.57;3.60;;;17.90;91.30;;;;;;5072706;28;20583;-70
2023/04/11 12:37:51;;;;;;;8.15;2.53;;;18.10;92.10;;;;;;5071791;28;20162;-70
2023/04/11 12:40:17;;;;;;;8.73;2.47;;;18.20;91.50;;;;;;5072236;28;20136;-71
2023/04/11 12:42:44;;;;;;;9.60;2.33;;;17.90;90.30;;;;;;5069627;28;20865;-71
2023/04/11 12:45:11;;;;;;;8.38;2.38;;;17.80;90.60;;;;;;5071818;28;20036;-70
2023/04/11 12:47:36;;;;;;;13.30;3.13;;;17.90;90.40;;;;;;5070592;28;20028;-71